Time;durP1;ratioP1;P1;durP2;ratioP2;P2;SDS_P1;SDS_P2;PMS_P1;PMS_P2;Temp;Humidity;BMP_temperature;BMP_pressure;BME280_temperature;BME280_humidity;BME280_pressure;Samples;Min_cycle;Max_cycle;Signal;HPM_P1;HPM_P2
2022/04/07 00:02:16;;;;;;;5.15;3.40;;;;;;;9.54;63.58;97330.94;4379468;32;20094;-70
2022/04/07 00:04:44;;;;;;;5.45;3.10;;;;;;;9.46;64.31;97327.50;4379402;32;20090;-70
2022/04/07 00:07:12;;;;;;;5.85;3.60;;;;;;;9.38;64.73;97326.53;4378575;32;20091;-70
2022/04/07 00:09:39;;;;;;;6.22;4.28;;;;;;;9.30;65.27;97323.94;4379397;32;20108;-70
2022/04/07 00:12:07;;;;;;;7.20;3.25;;;;;;;9.21;65.65;97322.31;4379555;32;20118;-70
2022/04/07 00:14:34;;;;;;;5.90;3.30;;;;;;;9.16;65.60;97320.19;4379317;32;20164;-70
2022/04/07 00:17:01;;;;;;;7.20;3.37;;;;;;;8.99;66.39;97313.31;4379296;32;20385;-70
2022/04/07 00:19:29;;;;;;;4.97;3.28;;;;;;;8.81;67.09;97313.47;4379236;32;20113;-70
2022/04/07 00:21:59;;;;;;;4.62;3.10;;;;;;;8.79;67.30;97312.81;4379242;32;20425;-70
2022/04/07 00:24:26;;;;;;;7.10;4.15;;;;;;;8.78;67.12;97308.56;4379080;32;20158;-70
2022/04/07 00:26:54;;;;;;;4.93;3.10;;;;;;;8.67;67.79;97300.06;4379259;32;20094;-70
2022/04/07 00:29:21;;;;;;;7.03;3.70;;;;;;;8.64;68.08;97300.38;4379178;32;20152;-69
2022/04/07 00:31:55;;;;;;;7.20;3.47;;;;;;;8.58;68.35;97295.00;4379212;32;20099;-69
2022/04/07 00:34:23;;;;;;;5.50;2.95;;;;;;;8.59;68.55;97294.03;4379275;32;20103;-70
2022/04/07 00:36:50;;;;;;;6.82;3.62;;;;;;;8.58;68.36;97284.56;4378993;32;20086;-69
2022/04/07 00:39:18;;;;;;;7.00;3.33;;;;;;;8.57;68.60;97280.31;4365485;32;20109;-70
2022/04/07 00:41:45;;;;;;;7.37;3.47;;;;;;;8.52;68.55;97283.41;4379045;32;20136;-70
2022/04/07 00:44:13;;;;;;;6.50;3.17;;;;;;;8.48;68.85;97274.28;4379023;32;20169;-70
2022/04/07 00:46:41;;;;;;;4.32;3.15;;;;;;;8.39;68.88;97270.81;4379042;32;20095;-70
2022/04/07 00:49:10;;;;;;;5.97;3.78;;;;;;;8.43;68.34;97268.69;4378863;32;20138;-70
2022/04/07 00:51:40;;;;;;;4.87;2.90;;;;;;;8.43;68.61;97266.06;4378974;32;20098;-70
2022/04/07 00:54:08;;;;;;;5.43;3.45;;;;;;;8.42;68.95;97260.06;4379063;32;20086;-70
2022/04/07 00:56:36;;;;;;;7.18;3.53;;;;;;;8.42;68.93;97261.81;4378993;32;20189;-70
2022/04/07 00:59:06;;;;;;;4.95;3.33;;;;;;;8.45;68.68;97259.75;4379034;32;20492;-70
2022/04/07 01:01:34;;;;;;;8.95;3.10;;;;;;;8.48;68.11;97256.03;4365556;32;20425;-70
2022/04/07 01:04:01;;;;;;;4.47;2.85;;;;;;;8.80;65.78;97254.41;4378583;32;20095;-70
2022/04/07 01:06:29;;;;;;;8.38;3.55;;;;;;;9.03;64.15;97255.34;4378787;32;20082;-69
2022/04/07 01:08:56;;;;;;;5.62;3.30;;;;;;;9.18;63.65;97255.50;4378727;32;20091;-69
2022/04/07 01:11:26;;;;;;;5.75;3.37;;;;;;;9.53;62.57;97256.09;4378642;32;20114;-69
2022/04/07 01:13:53;;;;;;;4.97;2.95;;;;;;;9.33;62.97;97263.50;4378749;32;20491;-69
2022/04/07 01:16:26;;;;;;;4.70;2.95;;;;;;;9.55;62.12;97256.75;4378710;32;20086;-69
2022/04/07 01:18:55;;;;;;;5.00;3.28;;;;;;;9.47;62.06;97250.72;4379427;32;20087;-69
2022/04/07 01:21:23;;;;;;;6.57;3.50;;;;;;;9.40;62.37;97243.56;4380479;32;20753;-69
2022/04/07 01:24:02;;;;;;;6.53;3.05;;;;;;;9.39;62.38;97239.31;4380282;32;20095;-69
2022/04/07 01:26:40;;;;;;;4.07;3.10;;;;;;;9.41;62.59;97242.56;4380539;32;20129;-69
2022/04/07 01:29:12;;;;;;;5.32;2.95;;;;;;;9.36;62.57;97234.41;4366969;32;20087;-69
2022/04/07 01:31:39;;;;;;;4.55;3.00;;;;;;;9.44;62.19;97232.78;4380461;32;20416;-69
2022/04/07 01:34:12;;;;;;;5.28;2.78;;;;;;;9.60;61.53;97237.94;4380328;32;20120;-69
2022/04/07 01:36:41;;;;;;;3.97;2.62;;;;;;;9.58;61.60;97227.66;4380240;32;20098;-69
2022/04/07 01:39:09;;;;;;;3.65;2.87;;;;;;;9.49;61.94;97223.44;4380102;32;20086;-69
2022/04/07 01:41:38;;;;;;;4.25;2.80;;;;;;;9.38;62.35;97216.75;4380359;32;20434;-69
2022/04/07 01:44:07;;;;;;;9.90;3.28;;;;;;;9.33;62.54;97226.91;4380186;32;20150;-69
2022/04/07 01:46:34;;;;;;;4.95;3.08;;;;;;;9.02;63.61;97222.41;4380602;32;20135;-69
2022/04/07 01:49:02;;;;;;;4.47;2.70;;;;;;;9.08;63.47;97230.56;4380260;32;20102;-69
2022/04/07 01:51:30;;;;;;;4.95;3.10;;;;;;;9.44;61.76;97223.12;4380321;32;20429;-69
2022/04/07 01:53:57;;;;;;;6.68;2.80;;;;;;;9.51;61.55;97223.28;4380171;32;20137;-69
2022/04/07 01:56:24;;;;;;;3.80;2.78;;;;;;;9.35;62.20;97214.47;4380240;32;20090;-69
2022/04/07 01:58:53;;;;;;;5.05;3.33;;;;;;;9.27;62.34;97209.28;4380073;32;20118;-69
2022/04/07 02:01:20;;;;;;;8.73;2.97;;;;;;;9.23;62.68;97203.59;4366855;32;20137;-69
2022/04/07 02:03:48;;;;;;;4.40;3.17;;;;;;;9.24;62.63;97191.34;4380330;32;20091;-69
2022/04/07 02:06:17;;;;;;;7.20;3.30;;;;;;;9.19;62.96;97188.37;4380129;32;20111;-69
2022/04/07 02:08:46;;;;;;;5.93;3.05;;;;;;;9.01;63.78;97184.19;4380103;32;20105;-69
2022/04/07 02:11:13;;;;;;;10.77;2.95;;;;;;;9.03;64.17;97177.00;4380101;32;20102;-69
2022/04/07 02:13:41;;;;;;;4.82;2.78;;;;;;;9.06;64.64;97171.44;4380519;32;20465;-69
2022/04/07 02:16:09;;;;;;;5.25;2.85;;;;;;;9.02;64.25;97169.31;4380116;32;20078;-69
2022/04/07 02:18:37;;;;;;;6.25;3.22;;;;;;;8.83;64.93;97176.56;4379983;32;20082;-69
2022/04/07 02:21:05;;;;;;;6.28;2.67;;;;;;;8.90;64.84;97155.81;4379874;32;20126;-69
2022/04/07 02:23:42;;;;;;;6.10;2.58;;;;;;;9.14;64.23;97152.31;4379955;32;20148;-69
2022/04/07 02:26:13;;;;;;;3.97;2.53;;;;;;;9.13;63.76;97145.47;4380021;32;20082;-69
2022/04/07 02:28:40;;;;;;;4.87;2.95;;;;;;;9.37;63.15;97130.69;4380375;32;20097;-69
2022/04/07 02:31:07;;;;;;;4.25;2.50;;;;;;;9.61;62.29;97134.16;4379609;32;20091;-69
2022/04/07 02:33:35;;;;;;;4.20;2.58;;;;;;;9.50;62.51;97130.16;4379962;32;20121;-69
2022/04/07 02:36:06;;;;;;;5.80;3.00;;;;;;;9.44;62.57;97128.22;4379605;32;20099;-69
2022/04/07 02:38:34;;;;;;;4.43;2.87;;;;;;;9.62;62.00;97131.38;4379803;32;20075;-69
2022/04/07 02:41:02;;;;;;;4.57;2.30;;;;;;;9.63;62.20;97122.56;4379805;32;20095;-69
2022/04/07 02:43:29;;;;;;;4.37;2.80;;;;;;;9.83;61.39;97114.28;4380081;32;20124;-69
2022/04/07 02:45:56;;;;;;;5.75;2.80;;;;;;;9.97;60.77;97110.91;4379857;32;20091;-69
2022/04/07 02:48:24;;;;;;;5.22;2.92;;;;;;;10.06;60.63;97099.41;4379852;32;20161;-69
2022/04/07 02:50:51;;;;;;;4.28;2.78;;;;;;;10.08;60.47;97097.44;4379930;32;20117;-69
2022/04/07 02:53:18;;;;;;;4.47;2.60;;;;;;;10.15;60.21;97091.50;4379851;32;20122;-69
2022/04/07 02:55:45;;;;;;;5.70;2.90;;;;;;;10.26;59.83;97093.69;4380057;32;20143;-69
2022/04/07 02:58:13;;;;;;;6.72;2.87;;;;;;;10.30;59.56;97084.50;4379796;32;20554;-69
2022/04/07 03:00:40;;;;;;;3.62;2.05;;;;;;;10.16;60.43;97085.25;4379791;32;20095;-69
2022/04/07 03:03:08;;;;;;;6.25;2.87;;;;;;;10.13;60.42;97079.41;4380023;32;20114;-69
2022/04/07 03:05:36;;;;;;;3.47;2.47;;;;;;;10.28;60.38;97083.88;4379821;32;20126;-69
2022/04/07 03:08:03;;;;;;;5.30;2.33;;;;;;;10.12;60.72;97079.56;4379638;32;20109;-69
2022/04/07 03:10:30;;;;;;;3.12;1.98;;;;;;;10.00;61.38;97086.22;4379686;32;20162;-69
2022/04/07 03:12:57;;;;;;;4.65;2.30;;;;;;;9.98;61.35;97082.94;4379740;32;20113;-69
2022/04/07 03:15:25;;;;;;;2.78;2.28;;;;;;;9.96;61.39;97083.09;4379805;32;20106;-69
2022/04/07 03:17:52;;;;;;;3.90;2.65;;;;;;;9.82;61.78;97076.84;4379546;32;20082;-69
2022/04/07 03:20:19;;;;;;;3.45;2.00;;;;;;;9.81;61.95;97077.00;4379738;32;20105;-69
2022/04/07 03:22:46;;;;;;;5.12;2.53;;;;;;;9.76;62.44;97077.53;4380045;32;20118;-69
2022/04/07 03:25:14;;;;;;;3.22;2.40;;;;;;;9.66;63.08;97077.78;4379888;32;20094;-69
2022/04/07 03:27:41;;;;;;;11.10;2.83;;;;;;;9.74;62.70;97075.09;4379571;32;20079;-69
2022/04/07 03:30:08;;;;;;;7.15;3.03;;;;;;;9.62;63.60;97080.91;4379652;32;20106;-69
2022/04/07 03:32:36;;;;;;;4.50;2.83;;;;;;;9.64;63.47;97069.28;4379480;32;20107;-69
2022/04/07 03:35:04;;;;;;;3.37;2.20;;;;;;;9.70;63.53;97063.34;4365929;32;20153;-69
2022/04/07 03:37:32;;;;;;;5.18;2.70;;;;;;;9.46;64.19;97056.47;4379145;32;20377;-69
2022/04/07 03:39:59;;;;;;;3.75;2.50;;;;;;;9.43;64.33;97050.78;4379430;32;20122;-69
2022/04/07 03:42:26;;;;;;;4.60;2.42;;;;;;;9.30;64.79;97049.53;4378490;32;20087;-69
2022/04/07 03:44:53;;;;;;;5.82;2.58;;;;;;;9.15;65.71;97043.44;4379569;32;20139;-69
2022/04/07 03:47:21;;;;;;;3.97;2.50;;;;;;;9.06;66.13;97046.06;4379538;32;20466;-69
2022/04/07 03:49:48;;;;;;;5.30;2.40;;;;;;;9.05;66.24;97044.44;4379580;32;20099;-69
2022/04/07 03:52:15;;;;;;;4.28;2.12;;;;;;;9.02;66.57;97033.50;4379465;32;20129;-69
2022/04/07 03:54:42;;;;;;;4.80;2.90;;;;;;;9.14;66.02;97037.38;4379377;32;20099;-69
2022/04/07 03:57:10;;;;;;;5.00;3.08;;;;;;;8.98;66.59;97032.25;4379253;32;20428;-69
2022/04/07 03:59:38;;;;;;;6.45;2.62;;;;;;;9.06;66.13;97025.16;4379250;32;20099;-69
2022/04/07 04:02:06;;;;;;;7.85;3.17;;;;;;;9.23;65.12;97028.53;4379273;32;20095;-69
2022/04/07 04:04:34;;;;;;;5.57;3.20;;;;;;;9.33;64.59;97019.66;4379361;32;20396;-69
2022/04/07 04:07:01;;;;;;;7.50;2.78;;;;;;;9.41;64.17;97011.75;4379364;32;20194;-69
2022/04/07 04:09:28;;;;;;;7.70;3.10;;;;;;;9.61;63.32;97017.31;4379553;32;20086;-69
2022/04/07 04:11:56;;;;;;;7.28;3.15;;;;;;;9.61;63.34;97014.72;4379140;32;20125;-71
2022/04/07 04:14:23;;;;;;;6.00;2.90;;;;;;;9.74;62.70;97009.72;4379288;32;20150;-71
2022/04/07 04:16:50;;;;;;;5.78;2.50;;;;;;;9.74;62.31;97014.94;4379171;32;20174;-70
2022/04/07 04:19:17;;;;;;;6.07;3.33;;;;;;;9.86;62.24;97012.75;4379143;32;20118;-71
2022/04/07 04:21:45;;;;;;;7.18;3.20;;;;;;;9.87;62.11;97017.00;4379116;32;20476;-70
2022/04/07 04:24:12;;;;;;;4.93;2.50;;;;;;;9.87;62.13;97014.38;4379168;32;20098;-70
2022/04/07 04:26:40;;;;;;;6.85;2.35;;;;;;;9.82;62.14;97018.50;4379221;32;20468;-69
2022/04/07 04:32:37;;;;;;;4.50;2.45;;;;;;;10.04;61.46;97017.66;4378937;32;20542;-69
2022/04/07 04:35:05;;;;;;;7.30;3.17;;;;;;;9.91;61.91;97017.44;4378688;32;20475;-72
2022/04/07 04:37:32;;;;;;;8.65;2.75;;;;;;;9.81;62.83;97016.84;4378699;32;20117;-71
2022/04/07 04:39:59;;;;;;;4.70;2.75;;;;;;;9.82;62.26;97021.13;4378972;32;20118;-71
2022/04/07 04:42:27;;;;;;;5.43;2.30;;;;;;;9.72;62.66;97016.94;4378978;32;20098;-71
2022/04/07 04:44:54;;;;;;;5.18;2.67;;;;;;;9.79;62.67;97013.63;4378986;32;20098;-71
2022/04/07 04:47:21;;;;;;;5.93;2.70;;;;;;;9.66;63.01;97012.41;4378922;32;20120;-71
2022/04/07 04:53:19;;;;;;;5.65;2.87;;;;;;;9.62;63.52;97026.00;4378500;32;20168;-71
2022/04/07 04:55:46;;;;;;;6.35;2.85;;;;;;;9.65;63.53;97023.84;4378747;32;20110;-71
2022/04/07 04:58:14;;;;;;;5.32;2.50;;;;;;;9.68;63.80;97022.69;4378580;32;20100;-71
2022/04/07 05:00:42;;;;;;;4.85;2.53;;;;;;;9.81;63.19;97028.16;4378620;32;20146;-71
2022/04/07 05:03:09;;;;;;;7.50;2.35;;;;;;;9.95;62.83;97029.19;4378613;32;20182;-71
2022/04/07 05:05:36;;;;;;;4.03;2.40;;;;;;;10.00;62.55;97023.44;4378366;32;20150;-71
2022/04/07 05:11:34;;;;;;;11.23;2.78;;;;;;;9.92;63.08;97025.12;4378640;32;20414;-71
2022/04/07 05:14:02;;;;;;;5.28;2.65;;;;;;;10.03;63.04;97026.50;4364790;32;20127;-71
2022/04/07 05:16:29;;;;;;;17.00;3.78;;;;;;;10.17;62.38;97026.72;4378240;32;20151;-71
2022/04/07 05:18:56;;;;;;;86.97;9.10;;;;;;;10.18;62.73;97031.75;4378282;32;20109;-71
2022/04/07 05:21:23;;;;;;;16.50;3.60;;;;;;;10.04;63.19;97038.59;4378711;32;20137;-72
2022/04/07 05:27:21;;;;;;;22.85;4.85;;;;;;;10.06;63.01;97033.97;4378478;32;20113;-72
2022/04/07 05:29:49;;;;;;;7.85;2.50;;;;;;;10.20;63.41;97039.44;4378358;32;20456;-72
2022/04/07 05:32:16;;;;;;;5.05;2.83;;;;;;;10.21;63.58;97051.53;4378396;32;20099;-71
2022/04/07 05:34:43;;;;;;;6.37;2.90;;;;;;;10.33;63.15;97046.69;4378291;32;20127;-72
2022/04/07 05:37:10;;;;;;;8.85;2.92;;;;;;;10.46;63.34;97047.72;4376579;32;20104;-72
2022/04/07 05:39:37;;;;;;;8.10;2.97;;;;;;;10.56;64.57;97057.13;4377959;32;20112;-72
2022/04/07 05:42:05;;;;;;;7.72;2.80;;;;;;;10.71;65.10;97065.81;4378282;32;20434;-71
2022/04/07 05:44:33;;;;;;;9.32;3.42;;;;;;;10.73;66.21;97076.09;4378228;32;20123;-72
2022/04/07 05:50:30;;;;;;;11.50;4.35;;;;;;;11.32;63.55;97085.72;4378057;32;20101;-71
2022/04/07 05:52:57;;;;;;;15.07;4.40;;;;;;;11.24;63.52;97086.66;4377939;32;20159;-71
2022/04/07 05:55:24;;;;;;;6.62;4.50;;;;;;;11.40;61.39;97088.28;4377852;32;20161;-71
2022/04/07 05:57:51;;;;;;;6.45;3.95;;;;;;;11.31;60.41;97090.19;4377843;32;20113;-71
2022/04/07 06:00:19;;;;;;;13.07;4.85;;;;;;;11.43;60.35;97093.16;4377873;32;20106;-71
2022/04/07 06:02:47;;;;;;;13.95;4.78;;;;;;;12.00;58.38;97086.28;4377894;32;20126;-75
2022/04/07 06:05:16;;;;;;;10.50;3.72;;;;;;;11.98;58.97;97083.03;4377631;32;20614;-75
2022/04/07 06:08:05;;;;;;;9.00;4.68;;;;;;;12.19;57.91;97089.31;4382107;32;20059;-75
2022/04/07 06:14:09;;;;;;;9.07;4.37;;;;;;;11.99;58.59;97086.47;4379894;32;20165;-69
2022/04/07 06:16:36;;;;;;;14.95;4.87;;;;;;;12.10;58.38;97085.16;4379690;32;20129;-70
2022/04/07 06:19:04;;;;;;;10.98;4.82;;;;;;;11.95;59.46;97095.75;4380006;32;20108;-70
2022/04/07 06:21:33;;;;;;;14.18;5.47;;;;;;;12.06;59.13;97109.16;4379930;32;20090;-69
2022/04/07 06:27:43;;;;;;;7.28;5.25;;;;;;;12.42;58.02;97121.41;4379906;32;20117;-70
2022/04/07 06:30:20;;;;;;;8.85;4.85;;;;;;;12.34;58.11;97120.72;4379851;32;20087;-70
2022/04/07 06:32:49;;;;;;;8.77;4.97;;;;;;;12.24;58.07;97127.09;4379742;32;20067;-70
2022/04/07 06:38:47;;;;;;;6.75;4.60;;;;;;;12.24;58.75;97128.91;4378883;32;20129;-70
2022/04/07 06:41:14;;;;;;;5.25;3.87;;;;;;;12.69;57.66;97128.69;4379874;32;20120;-69
2022/04/07 06:43:42;;;;;;;8.95;4.37;;;;;;;12.53;58.18;97127.13;4379876;32;20099;-69
2022/04/07 06:46:11;;;;;;;6.53;4.18;;;;;;;12.75;57.56;97141.06;4379583;32;20137;-69
2022/04/07 06:48:39;;;;;;;9.07;4.93;;;;;;;12.67;56.78;97131.50;4379619;32;20157;-71
2022/04/07 06:54:36;;;;;;;9.63;4.78;;;;;;;12.41;57.71;97134.72;4378630;32;20202;-70
2022/04/07 07:00:29;;;;;;;12.73;5.12;;;;;;;12.20;58.21;97128.50;4380179;32;20117;-70
2022/04/07 07:03:03;;;;;;;99.55;12.85;;;;;;;12.22;58.39;97126.47;4379615;32;20429;-69
2022/04/07 07:05:32;;;;;;;40.17;6.03;;;;;;;12.20;59.46;97128.50;4379692;32;20109;-69
2022/04/07 07:08:17;;;;;;;11.75;5.75;;;;;;;12.37;58.95;97125.56;4379611;32;20091;-70
2022/04/07 07:10:47;;;;;;;10.32;5.35;;;;;;;12.58;57.74;97132.63;4379649;32;20113;-69
2022/04/07 07:13:20;;;;;;;10.98;5.85;;;;;;;12.64;58.32;97136.31;4379564;32;20213;-68
2022/04/07 07:15:52;;;;;;;7.15;4.80;;;;;;;12.36;59.07;97129.22;4379320;32;20078;-69
2022/04/07 07:21:50;;;;;;;10.73;5.70;;;;;;;12.19;59.86;97137.34;4379368;32;20226;-70
2022/04/07 07:27:48;;;;;;;8.63;5.60;;;;;;;12.10;59.93;97130.59;4379351;32;20100;-69
2022/04/07 07:30:17;;;;;;;7.87;4.47;;;;;;;12.27;58.32;97127.72;4379273;32;20459;-70
2022/04/07 07:36:15;;;;;;;9.43;3.97;;;;;;;12.50;57.06;97130.94;4379249;32;20113;-71
2022/04/07 07:38:42;;;;;;;6.68;4.35;;;;;;;12.46;56.73;97131.50;4379074;32;20152;-70
2022/04/07 07:44:40;;;;;;;9.48;4.60;;;;;;;12.42;56.50;97131.91;4379182;32;20156;-71
2022/04/07 07:50:41;;;;;;;7.10;4.55;;;;;;;13.21;55.31;97127.37;4379311;32;20274;-71
2022/04/07 07:53:16;;;;;;;7.50;4.40;;;;;;;13.20;53.83;97138.91;4379232;32;20154;-70
2022/04/07 07:55:43;;;;;;;6.70;4.15;;;;;;;13.28;53.31;97141.38;4379231;32;20121;-70
2022/04/07 07:58:10;;;;;;;9.95;4.87;;;;;;;13.39;52.52;97144.50;4379134;32;20486;-70
2022/04/07 08:04:07;;;;;;;8.43;4.70;;;;;;;13.60;52.54;97149.66;4379349;32;20126;-70
2022/04/07 08:06:35;;;;;;;11.63;6.03;;;;;;;13.57;53.58;97152.69;4379250;32;20121;-70
2022/04/07 08:09:02;;;;;;;11.82;6.07;;;;;;;13.13;57.75;97156.47;4379127;32;20113;-69
2022/04/07 08:14:59;;;;;;;9.75;6.40;;;;;;;12.77;60.35;97152.19;4379130;32;20129;-70
2022/04/07 08:17:27;;;;;;;10.25;6.53;;;;;;;12.59;61.97;97152.66;4378950;32;20579;-70
2022/04/07 08:19:54;;;;;;;9.10;6.28;;;;;;;12.43;61.59;97154.53;4378535;32;20091;-70
2022/04/07 08:22:21;;;;;;;11.27;6.62;;;;;;;12.64;61.30;97150.25;4378809;32;20090;-72
2022/04/07 08:28:19;;;;;;;12.45;6.82;;;;;;;12.92;60.96;97162.59;4378215;32;20554;-69
2022/04/07 08:30:47;;;;;;;14.23;7.45;;;;;;;12.67;61.13;97164.84;4365297;32;20121;-71
2022/04/07 08:33:14;;;;;;;11.57;7.15;;;;;;;12.20;63.59;97164.41;4378830;32;20091;-71
2022/04/07 08:35:41;;;;;;;14.15;7.47;;;;;;;11.97;64.18;97164.59;4378644;32;20459;-71
2022/04/07 08:41:15;;;;;;;11.48;7.43;;;;;;;12.16;63.05;97158.72;4377747;32;20113;-71
2022/04/07 08:43:43;;;;;;;13.82;7.57;;;;;;;12.28;62.88;97156.44;4378773;32;20078;-71
2022/04/07 08:49:42;;;;;;;12.73;7.25;;;;;;;12.45;62.47;97161.44;4378737;32;20121;-72
2022/04/07 08:52:10;;;;;;;13.07;7.35;;;;;;;12.47;61.33;97162.84;4378652;32;20113;-71
2022/04/07 08:54:37;;;;;;;12.82;7.20;;;;;;;12.77;60.82;97157.44;4365290;32;20463;-71
2022/04/07 09:00:35;;;;;;;9.70;6.25;;;;;;;13.14;59.91;97144.94;4378583;32;20126;-70
2022/04/07 09:06:34;;;;;;;11.88;5.78;;;;;;;14.06;56.77;97144.72;4378580;32;20100;-71
2022/04/07 09:12:34;;;;;;;10.15;6.32;;;;;;;13.95;56.41;97144.28;4378607;32;20117;-70
2022/04/07 09:15:01;;;;;;;13.10;7.78;;;;;;;13.49;57.45;97145.75;4378521;32;20094;-72
2022/04/07 09:17:30;;;;;;;11.77;7.80;;;;;;;13.52;59.81;97139.31;4378181;32;20094;-72
2022/04/07 09:23:30;;;;;;;15.32;8.40;;;;;;;13.48;59.39;97136.25;4377907;32;20130;-71
2022/04/07 09:29:38;;;;;;;14.18;8.68;;;;;;;13.86;60.38;97127.06;4377919;32;20197;-71
2022/04/07 09:36:06;;;;;;;11.00;7.45;;;;;;;14.09;57.59;97128.53;4378065;32;20113;-71
2022/04/07 09:42:20;;;;;;;11.73;6.20;;;;;;;14.12;55.03;97120.22;4379465;32;20129;-71
2022/04/07 09:48:18;;;;;;;15.13;6.40;;;;;;;14.26;55.38;97121.88;4379641;32;20207;-70
2022/04/07 09:54:17;;;;;;;16.40;6.10;;;;;;;14.97;53.76;97112.53;4379881;32;20125;-72
2022/04/07 09:56:48;;;;;;;11.30;6.57;;;;;;;15.25;52.62;97106.97;4379874;32;20094;-70
2022/04/07 10:02:34;;;;;;;12.77;7.15;;;;;;;14.92;53.54;97109.72;4379764;32;20125;-70
2022/04/07 10:05:02;;;;;;;10.57;6.30;;;;;;;15.45;52.29;97119.31;4379814;32;20091;-71
2022/04/07 10:07:29;;;;;;;18.50;6.22;;;;;;;15.67;51.05;97111.91;4379733;32;20153;-71
2022/04/07 10:09:57;;;;;;;9.43;5.75;;;;;;;15.22;50.84;97111.87;4366477;32;20099;-71
2022/04/07 10:12:26;;;;;;;9.23;5.78;;;;;;;15.21;51.77;97105.78;4366488;32;20090;-71
2022/04/07 10:14:54;;;;;;;8.02;4.87;;;;;;;15.50;50.52;97094.91;4379878;32;20090;-71
2022/04/07 10:17:22;;;;;;;11.02;5.85;;;;;;;15.65;48.92;97098.09;4379998;32;20184;-72
2022/04/07 10:23:47;;;;;;;7.65;4.20;;;;;;;15.32;48.77;97096.44;4379865;32;20205;-71
2022/04/07 10:30:19;;;;;;;6.87;3.90;;;;;;;15.19;49.57;97081.44;4379389;32;20120;-71
2022/04/07 10:36:19;;;;;;;4.95;3.62;;;;;;;15.64;47.88;97064.81;4379802;32;20406;-71
2022/04/07 10:42:17;;;;;;;4.43;3.03;;;;;;;15.90;46.54;97055.16;4379164;32;20177;-71
2022/04/07 10:48:25;;;;;;;5.32;3.20;;;;;;;16.16;45.25;97050.69;4379606;32;20112;-71
2022/04/07 10:54:28;;;;;;;5.62;2.78;;;;;;;16.23;44.43;97052.25;4379383;32;20122;-71
2022/04/07 11:00:38;;;;;;;5.70;4.12;;;;;;;16.70;43.89;97046.56;4379273;32;20110;-71
2022/04/07 11:06:36;;;;;;;5.43;4.18;;;;;;;16.25;45.04;97044.13;4379437;32;20161;-71
2022/04/07 11:09:17;;;;;;;6.32;4.03;;;;;;;16.45;44.97;97050.03;4379434;32;20086;-71
2022/04/07 11:11:53;;;;;;;9.68;4.90;;;;;;;16.94;44.91;97055.50;4379508;32;20079;-71
2022/04/07 11:18:23;;;;;;;8.70;5.20;;;;;;;16.45;45.66;97043.94;4379538;32;20240;-71
2022/04/07 11:24:24;;;;;;;10.63;5.20;;;;;;;16.30;49.26;97046.91;4332714;33;20162;-71
2022/04/07 11:30:35;;;;;;;8.25;5.20;;;;;;;16.53;52.20;97056.06;4332729;33;20468;-71
2022/04/07 11:33:18;;;;;;;14.35;5.70;;;;;;;16.52;51.61;97065.00;4332614;33;20112;-71
2022/04/07 11:36:00;;;;;;;8.65;5.78;;;;;;;16.71;52.49;97052.66;4332784;33;20523;-71
2022/04/07 11:38:32;;;;;;;5.95;4.75;;;;;;;16.57;52.83;97044.03;4332874;33;20083;-71
2022/04/07 11:41:07;;;;;;;7.15;5.30;;;;;;;16.87;51.48;97046.81;4332250;33;20103;-71
2022/04/07 11:43:36;;;;;;;8.00;5.28;;;;;;;16.56;51.67;97034.47;4332578;33;20147;-70
2022/04/07 11:46:04;;;;;;;8.40;4.47;;;;;;;16.42;50.43;97033.81;4332616;33;20092;-71
2022/04/07 11:52:28;;;;;;;5.95;3.80;;;;;;;16.86;48.42;97024.00;4332439;33;20134;-71
2022/04/07 11:58:29;;;;;;;7.85;3.90;;;;;;;17.62;46.91;97024.50;4354832;32;20573;-71
2022/04/07 12:04:15;;;;;;;7.65;5.30;;;;;;;17.94;46.29;97015.53;4363286;32;20177;-71
2022/04/07 12:10:14;;;;;;;7.37;4.60;;;;;;;17.83;47.65;97011.78;4363792;32;20170;-71
2022/04/07 12:16:12;;;;;;;7.65;4.80;;;;;;;17.29;48.70;97009.06;4364193;32;20165;-71
2022/04/07 12:21:59;;;;;;;6.80;4.10;;;;;;;17.66;48.25;96998.41;4364081;32;20152;-69
2022/04/07 12:28:12;;;;;;;7.95;4.60;;;;;;;16.87;50.23;97006.34;4364173;32;20588;-71
2022/04/07 12:34:12;;;;;;;6.55;4.35;;;;;;;17.49;48.25;97006.97;4363909;32;20117;-71
2022/04/07 12:36:41;;;;;;;7.70;5.22;;;;;;;17.69;47.45;96987.34;4363870;32;20094;-70
2022/04/07 12:39:10;;;;;;;8.07;4.82;;;;;;;17.55;47.59;96997.34;4363717;32;20102;-70
2022/04/07 12:45:04;;;;;;;6.57;4.75;;;;;;;18.18;46.92;97008.44;4377984;32;20105;-70
2022/04/07 12:51:24;;;;;;;6.43;3.87;;;;;;;18.07;47.20;96996.78;4378639;32;20161;-71
2022/04/07 12:57:30;;;;;;;7.43;5.10;;;;;;;18.43;46.02;96990.44;4378021;32;20229;-71
2022/04/07 13:03:54;;;;;;;6.50;3.83;;;;;;;18.95;45.57;96979.09;4378234;32;20125;-71
2022/04/07 13:09:47;;;;;;;7.35;4.30;;;;;;;18.70;44.24;96962.63;4378446;32;20053;-71
2022/04/07 13:12:15;;;;;;;5.37;4.30;;;;;;;18.93;44.41;96975.87;4377843;32;20106;-71
2022/04/07 13:18:13;;;;;;;6.50;4.40;;;;;;;18.86;43.93;96971.75;4380160;32;20177;-71
2022/04/07 13:20:40;;;;;;;7.20;3.55;;;;;;;18.79;45.30;96969.19;4380110;32;20087;-71
2022/04/07 13:23:07;;;;;;;5.22;4.15;;;;;;;18.59;45.91;96966.91;4380309;32;20173;-71
2022/04/07 13:25:34;;;;;;;5.05;3.87;;;;;;;18.51;45.99;96970.72;4380300;32;20099;-71
2022/04/07 13:28:02;;;;;;;4.68;3.62;;;;;;;18.30;45.51;96969.47;4380251;32;20098;-71
2022/04/07 13:30:29;;;;;;;8.30;4.10;;;;;;;18.24;46.29;96973.88;4380203;32;20477;-71
2022/04/07 13:32:56;;;;;;;6.10;4.45;;;;;;;18.29;46.02;96965.22;4380036;32;20452;-71
2022/04/07 13:35:24;;;;;;;6.15;4.40;;;;;;;17.99;46.51;96962.69;4378999;32;20504;-71
2022/04/07 13:37:51;;;;;;;5.00;3.78;;;;;;;18.17;46.23;96959.09;4380138;32;20090;-71
2022/04/07 13:40:18;;;;;;;4.45;3.33;;;;;;;18.40;45.87;96974.22;4380111;32;20523;-71
2022/04/07 13:42:53;;;;;;;4.37;3.05;;;;;;;18.51;44.76;96962.78;4379942;32;20555;-71
2022/04/07 13:45:21;;;;;;;3.87;3.00;;;;;;;18.70;44.15;96957.31;4366359;32;20098;-71
2022/04/07 13:47:48;;;;;;;4.57;2.67;;;;;;;18.56;45.37;96944.34;4380172;32;20117;-71
2022/04/07 13:53:45;;;;;;;3.35;2.45;;;;;;;18.37;45.02;96943.66;4379923;32;20205;-71
2022/04/07 13:59:43;;;;;;;2.33;1.80;;;;;;;18.22;45.57;96938.81;4380092;32;20146;-71
2022/04/07 14:02:11;;;;;;;3.37;1.62;;;;;;;18.13;45.15;96934.91;4379845;32;20149;-71
2022/04/07 14:08:08;;;;;;;1.30;0.90;;;;;;;18.06;44.67;96928.91;4379879;32;20587;-69
2022/04/07 14:14:31;;;;;;;1.62;1.45;;;;;;;19.02;41.86;96906.53;4379765;32;20138;-71
2022/04/07 14:16:59;;;;;;;1.58;1.40;;;;;;;19.07;41.44;96912.72;4379611;32;20095;-71
2022/04/07 14:19:26;;;;;;;1.10;1.00;;;;;;;19.30;41.05;96909.16;4379762;32;20099;-71
2022/04/07 14:21:53;;;;;;;1.10;1.00;;;;;;;20.41;41.77;96895.41;4379738;32;20082;-71
2022/04/07 14:24:21;;;;;;;2.08;0.82;;;;;;;20.39;39.45;96890.34;4379577;32;20214;-71
2022/04/07 14:26:48;;;;;;;1.23;1.10;;;;;;;20.02;39.67;96889.06;4379275;32;20087;-72
2022/04/07 14:29:15;;;;;;;1.65;1.15;;;;;;;19.94;39.41;96893.97;4379829;32;20091;-71
2022/04/07 14:31:43;;;;;;;1.67;1.10;;;;;;;19.89;39.65;96894.69;4379590;32;20106;-71
2022/04/07 14:34:10;;;;;;;1.95;1.23;;;;;;;19.69;39.63;96895.97;4379398;32;20125;-72
2022/04/07 14:36:37;;;;;;;2.45;0.93;;;;;;;19.66;39.91;96895.66;4379428;32;20082;-72
2022/04/07 14:39:05;;;;;;;0.88;0.80;;;;;;;20.11;38.99;96886.00;4379511;32;20472;-71
2022/04/07 14:45:03;;;;;;;5.25;0.90;;;;;;;20.46;38.12;96882.19;4379234;32;20201;-71
2022/04/07 14:47:30;;;;;;;0.60;0.60;;;;;;;20.13;37.90;96871.38;4379517;32;20083;-71
2022/04/07 14:49:58;;;;;;;1.80;0.90;;;;;;;20.36;38.01;96873.03;4379524;32;20102;-73
2022/04/07 14:52:25;;;;;;;1.55;0.75;;;;;;;21.10;36.59;96865.59;4379487;32;20102;-72
2022/04/07 14:58:23;;;;;;;0.80;0.80;;;;;;;21.21;36.91;96856.69;4379523;32;20125;-72
2022/04/07 15:00:51;;;;;;;0.98;0.80;;;;;;;21.41;37.14;96849.91;4379386;32;20513;-72
2022/04/07 15:03:20;;;;;;;1.60;0.77;;;;;;;21.20;36.62;96848.94;4379558;32;20465;-72
2022/04/07 15:09:18;;;;;;;1.00;0.80;;;;;;;21.79;36.52;96848.88;4379611;32;20141;-72
2022/04/07 15:15:16;;;;;;;0.73;0.70;;;;;;;21.90;34.88;96863.06;4379415;32;20109;-72
2022/04/07 15:21:15;;;;;;;1.98;0.70;;;;;;;21.10;36.90;96870.94;4379294;32;20472;-71
2022/04/07 15:23:43;;;;;;;2.00;1.35;;;;;;;20.84;37.11;96870.66;4379338;32;20087;-70
2022/04/07 15:26:10;;;;;;;0.73;0.70;;;;;;;20.92;36.20;96874.75;4379300;32;20116;-70
2022/04/07 15:28:37;;;;;;;1.02;0.73;;;;;;;20.83;36.41;96873.59;4379316;32;20117;-70